Time;durP1;ratioP1;P1;durP2;ratioP2;P2;SDS_P1;SDS_P2;PMS_P1;PMS_P2;Temp;Humidity;BMP_temperature;BMP_pressure;BME280_temperature;BME280_humidity;BME280_pressure;Samples;Min_cycle;Max_cycle;Signal;HPM_P1;HPM_P2
2023/04/12 00:02:11;;;;;;;5.93;1.70;;;10.20;94.10;;;;;;6109258;23;20216;-72
2023/04/12 00:04:38;;;;;;;5.63;1.40;;;10.20;94.90;;;;;;6109753;23;20220;-69
2023/04/12 00:07:04;;;;;;;6.20;1.60;;;10.10;95.50;;;;;;6109833;23;20232;-70
2023/04/12 00:09:31;;;;;;;4.60;1.10;;;10.10;96.70;;;;;;6109807;23;20432;-70
2023/04/12 00:12:00;;;;;;;4.43;1.50;;;10.00;97.00;;;;;;6103708;23;20412;-71
2023/04/12 00:14:26;;;;;;;3.13;1.40;;;9.90;98.00;;;;;;6075083;23;20384;-69
2023/04/12 00:16:51;;;;;;;3.73;1.60;;;9.80;98.60;;;;;;6111416;23;20373;-69
2023/04/12 00:19:17;;;;;;;3.10;1.50;;;9.80;99.90;;;;;;6109767;23;20152;-69
2023/04/12 00:21:43;;;;;;;4.47;1.60;;;9.70;99.90;;;;;;6108959;23;20203;-71
2023/04/12 00:24:09;;;;;;;3.07;1.17;;;9.70;99.90;;;;;;6109120;23;20136;-69
2023/04/12 00:26:34;;;;;;;7.20;1.50;;;9.70;99.90;;;;;;6109195;23;20430;-69
2023/04/12 00:29:00;;;;;;;2.30;1.37;;;9.60;99.90;;;;;;6115070;23;20456;-71
2023/04/12 00:31:26;;;;;;;8.30;1.50;;;9.60;99.90;;;;;;6109901;23;20183;-70
2023/04/12 00:33:51;;;;;;;6.90;1.87;;;9.60;99.90;;;;;;6108923;23;20394;-69
2023/04/12 00:36:17;;;;;;;8.20;2.00;;;9.50;99.90;;;;;;6084507;23;20506;-70
2023/04/12 00:38:44;;;;;;;4.93;2.40;;;9.50;99.90;;;;;;6109417;23;20160;-69
2023/04/12 00:41:11;;;;;;;4.90;1.50;;;9.50;99.90;;;;;;6105908;23;20628;-70
2023/04/12 00:43:40;;;;;;;3.27;1.33;;;9.40;99.90;;;;;;6109128;23;20424;-70
2023/04/12 00:46:06;;;;;;;4.90;1.90;;;9.40;99.90;;;;;;6109480;23;20379;-70
2023/04/12 00:48:32;;;;;;;4.80;1.20;;;9.30;99.90;;;;;;6109223;23;20360;-69
2023/04/12 00:50:59;;;;;;;5.20;1.30;;;9.30;99.90;;;;;;6074039;23;20156;-70
2023/04/12 00:53:25;;;;;;;3.83;1.27;;;9.20;99.90;;;;;;6100973;23;20621;-70
2023/04/12 00:55:51;;;;;;;3.90;1.33;;;9.20;99.90;;;;;;6077466;23;20383;-70
2023/04/12 00:58:20;;;;;;;3.70;1.40;;;9.10;99.90;;;;;;6101547;23;20219;-70
2023/04/12 01:00:49;;;;;;;8.53;1.57;;;9.10;99.90;;;;;;6112685;23;20845;-72
2023/04/12 01:03:22;;;;;;;5.23;1.20;;;9.10;99.90;;;;;;6111802;23;20782;-70
2023/04/12 01:06:03;;;;;;;4.40;1.60;;;9.00;99.90;;;;;;6077219;23;20380;-70
2023/04/12 01:08:51;;;;;;;5.43;1.43;;;9.00;99.90;;;;;;6112626;23;20364;-69
2023/04/12 01:11:25;;;;;;;5.20;1.60;;;8.90;99.90;;;;;;6076673;23;20401;-70
2023/04/12 01:14:19;;;;;;;2.97;1.13;;;8.90;99.90;;;;;;6077771;23;20451;-70
2023/04/12 01:16:52;;;;;;;2.87;1.23;;;8.90;99.90;;;;;;6077457;23;20385;-69
2023/04/12 01:19:56;;;;;;;5.40;1.07;;;8.80;99.90;;;;;;6077411;23;20824;-70
2023/04/12 01:22:25;;;;;;;3.93;1.20;;;8.80;99.90;;;;;;6100900;23;20765;-70
2023/04/12 01:25:28;;;;;;;4.43;1.13;;;8.70;99.90;;;;;;6113013;23;20384;-70
2023/04/12 01:28:01;;;;;;;4.20;1.00;;;8.70;99.90;;;;;;6101749;23;20372;-71
2023/04/12 01:30:28;;;;;;;4.53;1.00;;;8.70;99.90;;;;;;6112862;23;20364;-69
2023/04/12 01:32:55;;;;;;;4.93;1.80;;;8.70;99.90;;;;;;6112145;23;20723;-70
2023/04/12 01:35:26;;;;;;;3.43;1.40;;;8.60;99.90;;;;;;6112594;23;20372;-69
2023/04/12 01:37:52;;;;;;;5.00;1.40;;;8.60;99.90;;;;;;6101873;23;20476;-70
2023/04/12 01:40:18;;;;;;;2.33;1.20;;;8.60;99.90;;;;;;6113111;23;20391;-70
2023/04/12 01:42:44;;;;;;;2.57;1.10;;;8.50;99.90;;;;;;6103107;23;20220;-70
2023/04/12 01:45:10;;;;;;;2.50;1.20;;;8.50;99.90;;;;;;6112718;23;20468;-70
2023/04/12 01:47:37;;;;;;;2.27;1.00;;;8.50;99.90;;;;;;6101715;23;20231;-70
2023/04/12 01:50:17;;;;;;;2.97;1.20;;;8.50;99.90;;;;;;6112586;23;20361;-72
2023/04/12 01:52:52;;;;;;;1.80;1.00;;;8.50;99.90;;;;;;6112661;23;20455;-70
2023/04/12 01:55:20;;;;;;;3.00;1.50;;;8.50;99.90;;;;;;6112814;23;20426;-71
2023/04/12 01:57:48;;;;;;;2.50;1.13;;;8.50;99.90;;;;;;6113001;23;20376;-70
2023/04/12 02:00:15;;;;;;;2.60;1.30;;;8.50;99.90;;;;;;6101918;23;20395;-71
2023/04/12 02:02:42;;;;;;;2.93;1.10;;;8.50;99.90;;;;;;6111900;23;20526;-70
2023/04/12 02:05:08;;;;;;;5.70;1.50;;;8.50;99.90;;;;;;6110589;23;20865;-72
2023/04/12 02:07:36;;;;;;;4.70;1.47;;;8.50;99.90;;;;;;6111271;23;20369;-69
2023/04/12 02:10:01;;;;;;;4.90;1.10;;;8.50;99.90;;;;;;6111714;23;20369;-70
2023/04/12 02:12:27;;;;;;;4.63;1.67;;;8.40;99.90;;;;;;6075442;23;20475;-70
2023/04/12 02:14:52;;;;;;;5.07;1.60;;;8.40;99.90;;;;;;6077805;23;20151;-70
2023/04/12 02:17:18;;;;;;;5.33;1.80;;;8.40;99.90;;;;;;6077790;23;20152;-69
2023/04/12 02:19:46;;;;;;;3.30;1.37;;;8.40;99.90;;;;;;6102189;23;20156;-71
2023/04/12 02:22:12;;;;;;;5.10;1.37;;;8.40;99.90;;;;;;6100508;23;20429;-70
2023/04/12 02:24:38;;;;;;;3.17;1.00;;;8.40;99.90;;;;;;6111794;23;20800;-70
2023/04/12 02:27:04;;;;;;;2.87;1.53;;;8.40;99.90;;;;;;6110790;23;20159;-70
2023/04/12 02:29:30;;;;;;;3.83;1.20;;;8.40;99.90;;;;;;6110503;23;20837;-70
2023/04/12 02:31:56;;;;;;;4.50;1.57;;;8.40;99.90;;;;;;6075195;23;20412;-70
2023/04/12 02:34:24;;;;;;;4.43;1.53;;;8.50;99.90;;;;;;6097636;23;20388;-70
2023/04/12 02:36:57;;;;;;;1.83;1.13;;;8.40;99.90;;;;;;6099760;23;20662;-70
2023/04/12 02:39:23;;;;;;;2.50;1.47;;;8.40;99.90;;;;;;6102528;23;20384;-70
2023/04/12 02:41:50;;;;;;;2.17;1.00;;;8.30;99.90;;;;;;6098775;23;20444;-69
2023/04/12 02:44:16;;;;;;;5.93;1.63;;;8.30;99.90;;;;;;6099773;23;20440;-69
2023/04/12 02:46:48;;;;;;;3.40;1.37;;;8.30;99.90;;;;;;6099500;23;20137;-70
2023/04/12 02:49:15;;;;;;;5.43;1.97;;;8.30;99.90;;;;;;6100402;23;20396;-68
2023/04/12 02:51:41;;;;;;;5.83;1.83;;;8.20;99.90;;;;;;6110088;23;20460;-69
2023/04/12 02:54:07;;;;;;;7.67;1.60;;;8.20;99.90;;;;;;6099274;23;20385;-71
2023/04/12 02:56:49;;;;;;;6.40;1.40;;;8.20;99.90;;;;;;6099212;23;20384;-70
2023/04/12 02:59:38;;;;;;;5.17;1.63;;;8.20;99.90;;;;;;6102757;23;20841;-70
2023/04/12 03:02:29;;;;;;;2.80;1.97;;;8.20;99.90;;;;;;6098375;23;20623;-69
2023/04/12 03:05:02;;;;;;;3.13;1.73;;;8.10;99.90;;;;;;6098597;23;20388;-70
2023/04/12 03:07:35;;;;;;;3.20;2.10;;;8.10;99.90;;;;;;6099632;23;20391;-70
2023/04/12 03:10:01;;;;;;;3.57;1.73;;;8.00;99.90;;;;;;6110730;23;20439;-70
2023/04/12 03:12:28;;;;;;;3.20;1.37;;;8.00;99.90;;;;;;6098929;23;20264;-71
2023/04/12 03:15:14;;;;;;;3.20;1.80;;;8.00;99.90;;;;;;6100784;23;20389;-69
2023/04/12 03:17:44;;;;;;;7.20;1.73;;;7.90;99.90;;;;;;6099693;23;20439;-69
2023/04/12 03:20:12;;;;;;;6.50;2.10;;;8.00;99.90;;;;;;6100735;23;20392;-69
2023/04/12 03:22:44;;;;;;;6.43;1.83;;;8.00;99.90;;;;;;6100922;23;20432;-71
2023/04/12 03:25:11;;;;;;;7.87;2.43;;;8.00;99.90;;;;;;6099234;23;20658;-71
2023/04/12 03:27:42;;;;;;;5.00;1.90;;;7.90;99.90;;;;;;6100452;23;20377;-72
2023/04/12 03:30:11;;;;;;;8.10;2.07;;;7.90;99.90;;;;;;6099737;23;20771;-70
2023/04/12 03:32:41;;;;;;;10.63;2.27;;;7.90;99.90;;;;;;6098013;23;20408;-71
2023/04/12 03:35:09;;;;;;;12.20;2.17;;;8.00;99.90;;;;;;6098538;23;20392;-70
2023/04/12 03:37:35;;;;;;;6.10;2.27;;;7.90;99.90;;;;;;6099469;23;20454;-70
2023/04/12 03:40:02;;;;;;;4.73;1.90;;;7.90;99.90;;;;;;6099355;23;20385;-71
2023/04/12 03:42:28;;;;;;;2.83;1.67;;;7.90;99.90;;;;;;6105424;23;20436;-71
2023/04/12 03:44:54;;;;;;;4.77;2.37;;;7.80;99.90;;;;;;6104786;23;20434;-72
2023/04/12 03:47:21;;;;;;;7.03;2.50;;;7.80;99.90;;;;;;6104895;23;20395;-69
2023/04/12 03:49:48;;;;;;;4.90;2.20;;;7.80;99.90;;;;;;6100697;23;20419;-71
2023/04/12 03:52:13;;;;;;;4.70;2.10;;;7.80;99.90;;;;;;6099482;23;20478;-70
2023/04/12 03:54:42;;;;;;;8.40;2.07;;;7.80;99.90;;;;;;6100085;23;20260;-69
2023/04/12 03:57:11;;;;;;;5.00;1.90;;;7.80;99.90;;;;;;6103546;23;20396;-70
2023/04/12 03:59:42;;;;;;;3.83;1.90;;;7.80;99.90;;;;;;6099866;23;20389;-70
2023/04/12 04:02:08;;;;;;;5.13;2.33;;;7.80;99.90;;;;;;6103364;23;20459;-71
2023/04/12 04:04:38;;;;;;;7.23;2.60;;;7.90;99.90;;;;;;6114409;23;20361;-70
2023/04/12 04:07:08;;;;;;;7.60;2.17;;;7.80;99.90;;;;;;6103189;23;20472;-70
2023/04/12 04:09:40;;;;;;;4.00;2.43;;;7.90;99.90;;;;;;6103276;23;20380;-70
2023/04/12 04:12:07;;;;;;;6.73;2.60;;;7.90;99.90;;;;;;6103075;23;20439;-69
2023/04/12 04:14:35;;;;;;;6.67;2.30;;;7.90;99.90;;;;;;6104302;23;20384;-70
2023/04/12 04:17:02;;;;;;;5.20;2.67;;;7.90;99.90;;;;;;6104606;23;20397;-70
2023/04/12 04:19:29;;;;;;;5.30;3.00;;;7.90;99.90;;;;;;6103807;23;20388;-72
2023/04/12 04:21:55;;;;;;;5.67;2.40;;;7.90;99.90;;;;;;6109989;23;20428;-71
2023/04/12 04:24:22;;;;;;;4.00;2.20;;;7.90;99.90;;;;;;6108374;23;20387;-71
2023/04/12 04:26:53;;;;;;;3.80;2.20;;;7.90;99.90;;;;;;6120951;23;20420;-70
2023/04/12 04:29:24;;;;;;;6.73;3.07;;;7.90;99.90;;;;;;6102532;23;20421;-70
2023/04/12 04:31:52;;;;;;;6.20;2.43;;;7.90;99.90;;;;;;6106129;23;20413;-71
2023/04/12 04:34:20;;;;;;;5.43;2.40;;;7.80;99.90;;;;;;6083300;23;20403;-70
2023/04/12 04:36:47;;;;;;;4.87;2.60;;;7.80;99.90;;;;;;6108894;23;20385;-71
2023/04/12 04:39:20;;;;;;;7.80;2.93;;;7.90;99.90;;;;;;6109294;23;20381;-71
2023/04/12 04:41:53;;;;;;;5.17;2.43;;;7.80;99.90;;;;;;6107526;23;20532;-69
2023/04/12 04:44:34;;;;;;;4.07;2.33;;;7.90;99.90;;;;;;6107329;23;20384;-69
2023/04/12 04:47:03;;;;;;;3.30;2.50;;;7.90;99.90;;;;;;6104944;23;20389;-68
2023/04/12 04:49:30;;;;;;;3.63;2.10;;;7.90;99.90;;;;;;6107006;23;20699;-71
2023/04/12 04:52:03;;;;;;;4.03;2.40;;;7.80;99.90;;;;;;6083154;23;20415;-71
2023/04/12 04:54:31;;;;;;;6.20;2.60;;;7.80;99.90;;;;;;6111186;23;20384;-72
2023/04/12 04:56:58;;;;;;;5.10;3.20;;;7.80;99.90;;;;;;6111181;23;20421;-70
2023/04/12 04:59:24;;;;;;;6.20;2.40;;;7.80;99.90;;;;;;6106571;23;20388;-70
2023/04/12 05:01:57;;;;;;;7.90;3.30;;;7.80;99.90;;;;;;6084501;23;20567;-70
2023/04/12 05:04:23;;;;;;;5.87;2.43;;;7.80;99.90;;;;;;6108271;23;20388;-71
2023/04/12 05:06:49;;;;;;;4.53;2.40;;;7.80;99.90;;;;;;6124827;23;20129;-71
2023/04/12 05:09:18;;;;;;;3.50;2.13;;;7.70;99.90;;;;;;6108324;23;20145;-70
2023/04/12 05:11:49;;;;;;;6.03;2.93;;;7.80;99.90;;;;;;6105399;23;20448;-71
2023/04/12 05:14:15;;;;;;;4.90;2.37;;;7.80;99.90;;;;;;6118085;23;20380;-71
2023/04/12 05:16:41;;;;;;;4.37;3.30;;;7.70;99.90;;;;;;6104871;23;20436;-70
2023/04/12 05:19:07;;;;;;;4.17;2.73;;;7.80;99.90;;;;;;6104200;23;20387;-70
2023/04/12 05:21:33;;;;;;;6.93;3.70;;;7.70;99.90;;;;;;6103631;23;20215;-70
2023/04/12 05:23:59;;;;;;;3.83;2.67;;;7.70;99.90;;;;;;6103722;23;20413;-71
2023/04/12 05:26:25;;;;;;;3.77;2.70;;;7.80;99.90;;;;;;6114817;23;20388;-72
2023/04/12 05:28:51;;;;;;;6.13;2.10;;;7.80;99.90;;;;;;6105942;23;20872;-70
2023/04/12 05:31:20;;;;;;;3.70;2.70;;;7.70;99.90;;;;;;6105567;23;20404;-71
2023/04/12 05:33:48;;;;;;;3.23;2.37;;;7.80;99.90;;;;;;6106882;23;20388;-70
2023/04/12 05:36:13;;;;;;;4.77;2.60;;;7.80;99.90;;;;;;6119203;23;20810;-71
2023/04/12 05:38:40;;;;;;;4.70;2.60;;;7.80;99.90;;;;;;6107188;23;20451;-69
2023/04/12 05:41:10;;;;;;;3.27;2.80;;;7.70;99.90;;;;;;6108580;23;20471;-73
2023/04/12 05:43:36;;;;;;;3.83;2.77;;;7.70;99.90;;;;;;6120857;23;20404;-73
2023/04/12 05:46:06;;;;;;;4.90;2.50;;;7.70;99.90;;;;;;6084387;23;20159;-71
2023/04/12 05:48:32;;;;;;;4.17;3.10;;;7.70;99.90;;;;;;6084964;23;20463;-71
2023/04/12 05:51:01;;;;;;;3.90;2.87;;;7.70;99.90;;;;;;6107467;23;20373;-74
2023/04/12 05:53:28;;;;;;;6.97;3.30;;;7.70;99.90;;;;;;6118787;23;20388;-72
2023/04/12 05:55:56;;;;;;;5.40;3.40;;;7.70;99.90;;;;;;6109342;23;20372;-74
2023/04/12 05:58:22;;;;;;;8.37;2.93;;;7.70;99.90;;;;;;6108491;23;20376;-72
2023/04/12 06:00:54;;;;;;;4.57;2.40;;;7.70;99.90;;;;;;6108025;23;20385;-71
2023/04/12 06:03:22;;;;;;;3.83;2.63;;;7.70;99.90;;;;;;6118715;23;20430;-72
2023/04/12 06:05:49;;;;;;;3.00;2.57;;;7.70;99.90;;;;;;6109799;23;20389;-71
2023/04/12 06:08:14;;;;;;;4.83;2.60;;;7.60;99.90;;;;;;6109111;23;20377;-73
2023/04/12 06:10:41;;;;;;;5.17;2.90;;;7.60;99.90;;;;;;6110699;23;20177;-73
2023/04/12 06:13:07;;;;;;;4.67;2.70;;;7.60;99.90;;;;;;6087963;23;20500;-70
2023/04/12 06:15:35;;;;;;;5.47;3.23;;;7.60;99.90;;;;;;6113152;23;20373;-74
2023/04/12 06:18:01;;;;;;;4.00;3.30;;;7.70;99.90;;;;;;6086366;23;20385;-73
2023/04/12 06:20:27;;;;;;;4.40;2.83;;;7.70;99.90;;;;;;6113345;23;20443;-73
2023/04/12 06:22:53;;;;;;;4.97;3.77;;;7.70;99.90;;;;;;6114160;23;20432;-70
2023/04/12 06:25:20;;;;;;;4.30;2.73;;;7.70;99.90;;;;;;6111271;23;20460;-73
2023/04/12 06:27:47;;;;;;;4.27;3.10;;;7.70;99.90;;;;;;6112863;23;20389;-73
2023/04/12 06:30:15;;;;;;;7.63;4.00;;;7.80;99.90;;;;;;6113223;23;20401;-71
2023/04/12 06:32:44;;;;;;;3.10;2.30;;;7.80;99.90;;;;;;6087660;23;20483;-72
2023/04/12 06:35:10;;;;;;;3.33;3.00;;;7.80;99.90;;;;;;6087447;23;20472;-71
2023/04/12 06:37:36;;;;;;;3.60;3.00;;;7.80;99.90;;;;;;6112752;23;20396;-72
2023/04/12 06:40:02;;;;;;;6.70;3.73;;;7.90;99.90;;;;;;6111385;23;20385;-73
2023/04/12 06:42:28;;;;;;;4.40;2.83;;;7.80;99.90;;;;;;6113147;23;20628;-72
2023/04/12 06:44:54;;;;;;;4.00;2.67;;;7.80;99.90;;;;;;6086733;23;20149;-72
2023/04/12 06:47:21;;;;;;;6.37;3.37;;;7.80;99.90;;;;;;6112004;23;20832;-74
2023/04/12 06:49:47;;;;;;;4.27;3.00;;;7.80;99.90;;;;;;6123701;23;20148;-72
2023/04/12 06:52:12;;;;;;;5.27;3.67;;;7.90;99.90;;;;;;6120867;23;20408;-71
2023/04/12 06:54:38;;;;;;;6.77;3.13;;;7.90;99.90;;;;;;6086021;23;20160;-75
2023/04/12 06:57:10;;;;;;;10.53;3.90;;;7.90;99.90;;;;;;6085550;23;20157;-72
2023/04/12 06:59:39;;;;;;;6.17;3.37;;;8.00;99.90;;;;;;6110507;23;20384;-72
2023/04/12 07:02:06;;;;;;;5.77;3.47;;;8.10;99.90;;;;;;6122749;23;20496;-72
2023/04/12 07:04:32;;;;;;;5.93;2.30;;;8.10;99.90;;;;;;6112001;23;20381;-74
2023/04/12 07:06:58;;;;;;;6.07;2.83;;;8.10;99.90;;;;;;6114456;23;20388;-71
2023/04/12 07:09:24;;;;;;;5.17;2.63;;;8.20;99.90;;;;;;6086747;23;20144;-73
2023/04/12 07:11:50;;;;;;;3.60;2.30;;;8.20;99.90;;;;;;6090837;23;20432;-71
2023/04/12 07:14:16;;;;;;;3.00;1.90;;;8.20;99.90;;;;;;6110805;23;20396;-74
2023/04/12 07:16:42;;;;;;;2.70;2.07;;;8.20;99.90;;;;;;6113780;23;20156;-71
2023/04/12 07:19:08;;;;;;;4.87;2.37;;;8.20;99.90;;;;;;6114164;23;20380;-72
2023/04/12 07:21:34;;;;;;;2.37;1.70;;;8.20;99.90;;;;;;6092365;23;20440;-73
2023/04/12 07:24:00;;;;;;;3.33;2.10;;;8.20;99.90;;;;;;6089900;23;20156;-73
2023/04/12 07:26:26;;;;;;;2.10;1.90;;;8.20;99.90;;;;;;6114958;23;20388;-72
2023/04/12 07:28:52;;;;;;;2.27;1.60;;;8.30;99.90;;;;;;6115168;23;20384;-74
2023/04/12 07:31:18;;;;;;;3.03;2.13;;;8.30;99.90;;;;;;6116063;23;20147;-73
2023/04/12 07:33:46;;;;;;;3.07;1.90;;;8.30;99.90;;;;;;6115111;23;20467;-72
2023/04/12 07:36:12;;;;;;;3.13;2.30;;;8.30;99.90;;;;;;6113699;23;20180;-71
2023/04/12 07:38:38;;;;;;;3.70;2.10;;;8.30;99.90;;;;;;6115437;23;20440;-75
2023/04/12 07:41:03;;;;;;;3.20;2.37;;;8.30;99.90;;;;;;6085905;23;20422;-74
2023/04/12 07:43:29;;;;;;;4.90;3.00;;;8.30;99.90;;;;;;6124679;23;20436;-73
2023/04/12 07:45:55;;;;;;;3.70;2.30;;;8.40;99.90;;;;;;6088844;23;20408;-73
2023/04/12 07:48:21;;;;;;;3.40;2.40;;;8.50;99.90;;;;;;6122520;23;20817;-72
2023/04/12 07:50:47;;;;;;;4.23;2.20;;;8.60;99.90;;;;;;6111211;23;20155;-73
2023/04/12 07:53:20;;;;;;;4.60;2.20;;;8.70;99.90;;;;;;6112984;23;20594;-72
2023/04/12 07:55:46;;;;;;;3.47;2.13;;;8.60;99.90;;;;;;6111950;23;20489;-72
2023/04/12 07:58:12;;;;;;;4.93;1.70;;;8.70;99.90;;;;;;6087233;23;20376;-72
2023/04/12 08:00:38;;;;;;;1.90;1.70;;;8.60;99.90;;;;;;6109896;23;20380;-71
2023/04/12 08:03:03;;;;;;;3.83;1.83;;;8.60;99.90;;;;;;6111149;23;20557;-70
2023/04/12 08:05:29;;;;;;;2.43;1.70;;;8.50;99.90;;;;;;6111269;23;20171;-71
2023/04/12 08:07:55;;;;;;;2.33;1.60;;;8.60;99.90;;;;;;6121528;23;20137;-72
2023/04/12 08:10:21;;;;;;;3.17;1.73;;;8.60;99.90;;;;;;6115236;23;20137;-73
2023/04/12 08:12:46;;;;;;;4.97;2.10;;;8.70;99.90;;;;;;6112099;23;20264;-72
2023/04/12 08:15:12;;;;;;;2.90;1.73;;;8.80;99.90;;;;;;6089932;23;20149;-75
2023/04/12 08:17:38;;;;;;;2.03;1.50;;;8.80;99.90;;;;;;6113824;23;20474;-71
2023/04/12 08:20:05;;;;;;;2.70;1.77;;;8.90;99.90;;;;;;6111673;23;20163;-73
2023/04/12 08:22:30;;;;;;;3.80;1.80;;;9.00;99.90;;;;;;6111367;23;20180;-72
2023/04/12 08:24:56;;;;;;;2.40;1.63;;;9.00;99.90;;;;;;6110552;23;20385;-72
2023/04/12 08:27:22;;;;;;;1.80;1.50;;;9.00;99.90;;;;;;6086929;23;20153;-72
2023/04/12 08:29:48;;;;;;;3.50;1.60;;;9.10;99.90;;;;;;6112975;23;20147;-73
2023/04/12 08:32:15;;;;;;;3.07;1.90;;;9.20;99.90;;;;;;6111543;23;20172;-73
2023/04/12 08:34:41;;;;;;;2.37;1.77;;;9.30;99.90;;;;;;6086518;23;20380;-72
2023/04/12 08:37:06;;;;;;;2.13;1.40;;;9.40;99.90;;;;;;6112562;23;20461;-72
2023/04/12 08:39:32;;;;;;;2.03;1.30;;;9.50;99.90;;;;;;6110468;23;20151;-72
2023/04/12 08:41:59;;;;;;;1.70;1.50;;;9.80;99.90;;;;;;6113146;23;20200;-73
2023/04/12 08:44:36;;;;;;;1.73;1.20;;;10.00;99.90;;;;;;6112125;23;20240;-73
2023/04/12 08:47:04;;;;;;;1.57;1.47;;;10.00;99.90;;;;;;6111762;23;20392;-74
2023/04/12 08:49:31;;;;;;;3.30;1.37;;;10.00;99.90;;;;;;6110700;23;20540;-72
2023/04/12 08:52:06;;;;;;;1.80;1.50;;;10.00;99.90;;;;;;6112894;23;20405;-73
2023/04/12 08:54:33;;;;;;;2.03;1.67;;;9.90;99.90;;;;;;6090108;23;20384;-72
2023/04/12 08:57:07;;;;;;;1.40;1.00;;;9.90;99.90;;;;;;6110926;23;20395;-72
2023/04/12 08:59:37;;;;;;;2.70;1.50;;;9.90;99.90;;;;;;6113332;23;20662;-73
2023/04/12 09:02:02;;;;;;;2.20;1.80;;;10.00;99.90;;;;;;6112977;23;20428;-71
2023/04/12 09:04:29;;;;;;;2.30;2.00;;;10.10;99.90;;;;;;6109592;23;20409;-72
2023/04/12 09:06:55;;;;;;;3.33;2.33;;;10.20;99.90;;;;;;6110738;23;20542;-71
2023/04/12 09:09:50;;;;;;;2.70;1.63;;;10.30;99.90;;;;;;6112380;23;20377;-72
2023/04/12 09:12:19;;;;;;;1.40;1.27;;;10.40;99.90;;;;;;6069097;23;20432;-72
2023/04/12 09:14:45;;;;;;;1.83;1.60;;;10.50;99.90;;;;;;6112819;23;20387;-71
2023/04/12 09:17:25;;;;;;;3.97;1.83;;;10.60;99.90;;;;;;6111198;23;20476;-72
2023/04/12 09:19:52;;;;;;;1.93;1.43;;;10.70;99.90;;;;;;6112840;23;20459;-73
2023/04/12 09:22:18;;;;;;;2.17;1.80;;;10.60;99.90;;;;;;6113413;23;20420;-73
2023/04/12 09:24:49;;;;;;;4.20;1.70;;;10.50;99.90;;;;;;6116372;23;20384;-74
2023/04/12 09:27:19;;;;;;;3.27;2.20;;;10.40;99.90;;;;;;6113121;23;20444;-74
2023/04/12 09:29:50;;;;;;;2.20;1.77;;;10.30;99.90;;;;;;6113668;23;20380;-71
2023/04/12 09:32:25;;;;;;;1.77;1.40;;;10.30;99.90;;;;;;6127333;23;20408;-74
2023/04/12 09:35:00;;;;;;;1.70;1.47;;;10.20;99.90;;;;;;6094184;23;20395;-74
2023/04/12 09:37:26;;;;;;;3.07;1.60;;;10.20;99.90;;;;;;6089893;23;20388;-73
2023/04/12 09:40:04;;;;;;;2.00;1.57;;;10.20;99.90;;;;;;6117076;23;20404;-74
2023/04/12 09:42:35;;;;;;;2.20;2.00;;;10.20;99.90;;;;;;6118761;23;20440;-75
2023/04/12 09:45:21;;;;;;;3.13;1.63;;;10.30;99.90;;;;;;6046447;23;20387;-74
2023/04/12 09:47:47;;;;;;;2.60;1.63;;;10.30;99.90;;;;;;6096895;23;20411;-74
2023/04/12 09:50:31;;;;;;;2.10;1.90;;;10.30;99.90;;;;;;6068222;23;20439;-73
2023/04/12 09:52:58;;;;;;;2.30;1.30;;;10.30;99.90;;;;;;6067311;23;20686;-74
2023/04/12 09:55:27;;;;;;;1.87;1.67;;;10.30;99.90;;;;;;6102716;23;20372;-75
2023/04/12 09:57:55;;;;;;;1.87;1.43;;;10.20;99.90;;;;;;6093987;23;20380;-72
2023/04/12 10:00:26;;;;;;;2.50;2.23;;;10.10;99.90;;;;;;6131126;23;20432;-73
2023/04/12 10:02:53;;;;;;;3.10;1.73;;;10.10;99.90;;;;;;6092884;23;20460;-77
2023/04/12 10:05:22;;;;;;;2.70;1.83;;;10.10;99.90;;;;;;6093064;23;20432;-74
2023/04/12 10:07:48;;;;;;;1.90;1.70;;;10.10;99.90;;;;;;6094312;23;20409;-73
2023/04/12 10:10:16;;;;;;;2.70;2.03;;;10.20;99.90;;;;;;6094924;23;20365;-75
2023/04/12 10:12:44;;;;;;;6.57;2.53;;;10.40;99.90;;;;;;6071229;23;20503;-74
2023/04/12 10:15:16;;;;;;;3.07;2.53;;;10.60;99.90;;;;;;6096111;23;20389;-73
2023/04/12 10:17:52;;;;;;;3.30;2.60;;;10.70;99.90;;;;;;6068713;23;20381;-74
2023/04/12 10:20:21;;;;;;;2.63;2.40;;;10.80;99.90;;;;;;6102936;23;20435;-73
2023/04/12 10:22:49;;;;;;;2.60;1.70;;;10.90;99.90;;;;;;6046928;23;20500;-76
2023/04/12 10:25:19;;;;;;;1.67;1.57;;;11.00;99.90;;;;;;6071128;23;20401;-73
2023/04/12 10:27:46;;;;;;;3.23;2.20;;;11.20;99.90;;;;;;6093082;23;20392;-73
2023/04/12 10:30:30;;;;;;;3.50;2.63;;;11.20;99.90;;;;;;6069230;23;20357;-75
2023/04/12 10:33:05;;;;;;;2.50;1.90;;;11.30;99.90;;;;;;6093795;23;20682;-74
2023/04/12 10:35:54;;;;;;;2.40;2.03;;;11.30;99.90;;;;;;6072175;23;20400;-74
2023/04/12 10:38:22;;;;;;;2.13;1.77;;;11.20;99.90;;;;;;6045604;23;20394;-74
2023/04/12 10:41:19;;;;;;;1.97;1.70;;;11.20;99.90;;;;;;6006943;23;20476;-74
2023/04/12 10:44:11;;;;;;;2.80;1.97;;;11.10;99.90;;;;;;6029743;23;20407;-75
2023/04/12 10:46:43;;;;;;;5.50;2.50;;;11.00;99.90;;;;;;6005207;23;20424;-75
2023/04/12 10:49:11;;;;;;;2.60;2.40;;;11.00;99.90;;;;;;6005155;23;20391;-74
2023/04/12 10:51:37;;;;;;;5.13;4.63;;;11.00;99.90;;;;;;6007100;23;20411;-73
2023/04/12 10:54:15;;;;;;;3.27;2.57;;;10.90;99.90;;;;;;6006875;23;20423;-73
2023/04/12 10:56:43;;;;;;;6.30;4.27;;;10.90;99.90;;;;;;6040186;23;20376;-74
2023/04/12 10:59:51;;;;;;;4.20;2.73;;;10.80;99.90;;;;;;6029183;23;20466;-73
2023/04/12 11:02:17;;;;;;;2.77;2.50;;;10.60;99.90;;;;;;6008984;23;20435;-74
2023/04/12 11:05:09;;;;;;;4.43;2.60;;;10.30;99.90;;;;;;6009292;23;20399;-75
2023/04/12 11:07:52;;;;;;;3.20;1.80;;;10.20;99.90;;;;;;6007214;23;20382;-74
2023/04/12 11:10:40;;;;;;;5.30;1.70;;;10.20;99.90;;;;;;6029760;23;20442;-75
2023/04/12 11:13:10;;;;;;;5.53;3.33;;;10.10;99.90;;;;;;6006182;23;20452;-74
2023/04/12 11:15:39;;;;;;;5.10;2.40;;;10.20;99.90;;;;;;6045988;23;20388;-74
2023/04/12 11:18:11;;;;;;;5.60;3.23;;;10.40;99.90;;;;;;6093346;23;20128;-73
2023/04/12 11:20:39;;;;;;;6.23;3.17;;;10.60;99.90;;;;;;6091844;23;20373;-73
2023/04/12 11:23:05;;;;;;;5.43;3.20;;;10.40;99.90;;;;;;6093275;23;20417;-76
2023/04/12 11:25:53;;;;;;;9.80;3.30;;;10.40;99.90;;;;;;6069243;23;20405;-74
2023/04/12 11:28:21;;;;;;;6.30;3.80;;;10.30;99.90;;;;;;6070067;23;20425;-73
2023/04/12 11:30:55;;;;;;;6.17;4.00;;;10.40;99.90;;;;;;6067340;23;20397;-75
2023/04/12 11:33:50;;;;;;;6.70;4.00;;;10.40;99.90;;;;;;6096079;23;20405;-74
2023/04/12 11:36:16;;;;;;;10.07;3.90;;;10.50;99.90;;;;;;6045920;23;20412;-74
2023/04/12 11:38:44;;;;;;;5.50;4.33;;;10.50;99.90;;;;;;6069654;23;20396;-74
2023/04/12 11:41:13;;;;;;;6.17;3.27;;;10.80;99.90;;;;;;6095132;23;20448;-74
2023/04/12 11:43:39;;;;;;;6.80;3.50;;;11.10;99.90;;;;;;6070998;23;20412;-74
2023/04/12 11:46:14;;;;;;;7.43;3.10;;;11.10;99.90;;;;;;6070721;23;20387;-76
2023/04/12 11:48:44;;;;;;;7.70;3.00;;;11.00;99.90;;;;;;6061599;23;20177;-73
2023/04/12 11:51:27;;;;;;;7.40;3.40;;;11.40;99.90;;;;;;6002521;23;20412;-73
2023/04/12 11:53:56;;;;;;;4.13;3.00;;;11.80;99.90;;;;;;5978087;24;20466;-73
2023/04/12 11:56:23;;;;;;;5.00;3.03;;;12.10;99.90;;;;;;5976956;24;20467;-73
2023/04/12 11:58:50;;;;;;;8.90;3.30;;;12.50;99.90;;;;;;5977892;24;20399;-74
2023/04/12 12:01:21;;;;;;;5.80;2.90;;;13.00;99.90;;;;;;5981988;24;20406;-74
2023/04/12 12:03:47;;;;;;;3.40;2.80;;;13.30;99.90;;;;;;5943921;24;20420;-73
2023/04/12 12:06:17;;;;;;;4.93;2.73;;;13.60;99.90;;;;;;5981222;24;20396;-73
2023/04/12 12:08:43;;;;;;;4.17;2.40;;;13.90;99.90;;;;;;5964232;24;20416;-74
2023/04/12 12:11:10;;;;;;;6.60;2.47;;;14.00;99.90;;;;;;5955425;24;20389;-72
2023/04/12 12:13:53;;;;;;;5.17;2.20;;;14.20;99.90;;;;;;6005292;24;20468;-71
2023/04/12 12:16:25;;;;;;;3.87;2.33;;;14.50;99.90;;;;;;6010308;23;20383;-72
2023/04/12 12:18:51;;;;;;;3.60;2.00;;;14.50;99.90;;;;;;6092151;23;20384;-74
2023/04/12 12:21:18;;;;;;;6.80;2.30;;;14.70;99.90;;;;;;6097143;23;20395;-74
2023/04/12 12:23:45;;;;;;;4.03;1.60;;;14.90;97.20;;;;;;6072049;23;20164;-73
2023/04/12 12:26:19;;;;;;;6.13;1.40;;;14.90;93.10;;;;;;6094044;23;20391;-73
2023/04/12 12:28:53;;;;;;;4.73;2.10;;;14.90;89.50;;;;;;6070021;23;20381;-73
2023/04/12 12:31:22;;;;;;;3.97;1.30;;;15.10;91.40;;;;;;6072548;23;20436;-72
2023/04/12 12:33:55;;;;;;;3.03;1.77;;;15.00;84.50;;;;;;6092012;23;20369;-74
2023/04/12 12:36:37;;;;;;;6.20;3.93;;;15.10;83.80;;;;;;6094218;23;20377;-74
2023/04/12 12:39:11;;;;;;;3.83;2.10;;;15.20;84.20;;;;;;6029427;23;20375;-74
2023/04/12 12:41:38;;;;;;;4.27;2.10;;;15.50;81.40;;;;;;6079937;23;20432;-72
2023/04/12 12:44:06;;;;;;;3.73;1.77;;;15.80;74.30;;;;;;6089541;23;20380;-73
2023/04/12 12:46:32;;;;;;;4.40;1.83;;;16.00;70.10;;;;;;6095169;23;20379;-73
2023/04/12 12:48:58;;;;;;;6.90;2.00;;;16.00;68.90;;;;;;6105513;23;20368;-74
2023/04/12 12:51:25;;;;;;;5.53;2.07;;;15.70;65.30;;;;;;6095200;23;20466;-74
2023/04/12 12:53:52;;;;;;;7.20;2.13;;;15.60;66.40;;;;;;6096190;23;20155;-73
2023/04/12 12:56:20;;;;;;;4.13;2.00;;;15.70;67.10;;;;;;6072098;23;20753;-73
2023/04/12 12:58:47;;;;;;;6.87;2.37;;;15.80;62.80;;;;;;6067707;23;20389;-72
2023/04/12 13:01:12;;;;;;;4.40;2.00;;;15.90;62.80;;;;;;6092955;23;20452;-74
2023/04/12 13:03:42;;;;;;;5.20;1.87;;;15.80;59.40;;;;;;6104146;23;20145;-76
2023/04/12 13:06:08;;;;;;;4.37;1.60;;;15.90;59.90;;;;;;6071461;23;20184;-74